Time;durP1;ratioP1;P1;durP2;ratioP2;P2;SDS_P1;SDS_P2;PMS_P1;PMS_P2;Temp;Humidity;BMP_temperature;BMP_pressure;BME280_temperature;BME280_humidity;BME280_pressure;Samples;Min_cycle;Max_cycle;Signal;HPM_P1;HPM_P2
2022/11/24 00:00:01;;;;;;;14.55;9.00;;;;;;;3.50;100.00;100256.03;4914836;29;20188;-48
2022/11/24 00:02:29;;;;;;;15.18;9.35;;;;;;;3.51;100.00;100262.19;4980914;28;20245;-47
2022/11/24 00:04:55;;;;;;;15.10;9.20;;;;;;;3.55;100.00;100249.78;4914350;29;20761;-48
2022/11/24 00:07:20;;;;;;;11.77;8.57;;;;;;;3.53;100.00;100254.22;4918443;29;20295;-48
2022/11/24 00:09:46;;;;;;;13.10;8.90;;;;;;;3.57;100.00;100275.31;4913165;29;20853;-48
2022/11/24 00:12:12;;;;;;;14.98;8.82;;;;;;;3.58;100.00;100265.59;4916832;28;20188;-47
2022/11/24 00:14:37;;;;;;;15.02;8.57;;;;;;;3.54;100.00;100274.50;4916925;29;20203;-48
2022/11/24 00:17:03;;;;;;;11.75;8.48;;;;;;;3.54;100.00;100259.47;4915855;28;20207;-47
2022/11/24 00:19:28;;;;;;;12.07;8.52;;;;;;;3.55;100.00;100265.66;4909789;28;20218;-50
2022/11/24 00:21:54;;;;;;;15.43;8.63;;;;;;;3.55;100.00;100261.22;4921638;28;20187;-48
2022/11/24 00:24:19;;;;;;;14.57;9.30;;;;;;;3.52;100.00;100266.59;4916545;28;20196;-47
2022/11/24 00:26:45;;;;;;;12.85;8.48;;;;;;;3.50;100.00;100260.44;4915152;29;20279;-48
2022/11/24 00:29:11;;;;;;;16.25;8.52;;;;;;;3.48;100.00;100275.50;4988145;28;20216;-49
2022/11/24 00:31:39;;;;;;;17.40;9.00;;;;;;;3.48;100.00;100268.41;4915069;29;20184;-48
2022/11/24 00:34:09;;;;;;;12.30;8.30;;;;;;;3.49;100.00;100278.09;4915925;29;20584;-50
2022/11/24 00:36:35;;;;;;;16.30;8.60;;;;;;;3.49;100.00;100264.84;4918064;28;20283;-49
2022/11/24 00:39:04;;;;;;;15.77;8.68;;;;;;;3.48;100.00;100271.06;4921170;28;20199;-48
2022/11/24 00:41:31;;;;;;;15.70;8.50;;;;;;;3.49;100.00;100271.94;4922255;28;20183;-47
2022/11/24 00:43:57;;;;;;;12.35;8.15;;;;;;;3.47;100.00;100261.34;4921062;29;20261;-48
2022/11/24 00:46:24;;;;;;;12.27;9.05;;;;;;;3.46;100.00;100264.06;4921541;28;20192;-47
2022/11/24 00:48:50;;;;;;;10.25;7.85;;;;;;;3.47;100.00;100266.66;4920101;29;20215;-49
2022/11/24 00:51:18;;;;;;;12.60;8.10;;;;;;;3.45;100.00;100272.88;4919193;29;20194;-47
2022/11/24 00:53:44;;;;;;;15.30;8.75;;;;;;;3.46;100.00;100266.72;4921697;29;20216;-48
2022/11/24 00:56:11;;;;;;;15.38;8.25;;;;;;;3.48;100.00;100270.19;4915191;29;20231;-48
2022/11/24 00:58:37;;;;;;;11.45;7.93;;;;;;;3.46;100.00;100282.59;4915582;29;20631;-47
2022/11/24 01:01:07;;;;;;;15.98;8.27;;;;;;;3.48;100.00;100281.66;4916401;28;20188;-48
2022/11/24 01:03:32;;;;;;;13.52;8.30;;;;;;;3.47;100.00;100281.69;4913993;29;20536;-49
2022/11/24 01:06:19;;;;;;;18.23;8.32;;;;;;;3.46;100.00;100288.75;4980016;28;20203;-48
2022/11/24 01:08:45;;;;;;;10.70;7.38;;;;;;;3.48;100.00;100286.97;4915103;29;20187;-49
2022/11/24 01:11:23;;;;;;;14.20;8.18;;;;;;;3.49;100.00;100291.34;4916609;29;20637;-48
2022/11/24 01:13:52;;;;;;;14.35;7.82;;;;;;;3.50;100.00;100286.94;4916028;29;20203;-49
2022/11/24 01:16:24;;;;;;;12.20;7.85;;;;;;;3.50;100.00;100282.50;4913348;29;20212;-47
2022/11/24 01:18:51;;;;;;;17.13;7.80;;;;;;;3.50;100.00;100292.22;4914625;29;20183;-47
2022/11/24 01:21:17;;;;;;;14.27;8.40;;;;;;;3.53;100.00;100291.31;4916900;28;20517;-48
2022/11/24 01:23:43;;;;;;;12.10;8.10;;;;;;;3.53;100.00;100302.75;4993320;28;20286;-47
2022/11/24 01:26:11;;;;;;;11.80;8.10;;;;;;;3.51;100.00;100294.84;4916685;29;20278;-48
2022/11/24 01:28:37;;;;;;;13.70;8.52;;;;;;;3.50;100.00;100295.75;4913943;29;20223;-48
2022/11/24 01:31:05;;;;;;;11.60;7.53;;;;;;;3.50;100.00;100301.03;4922148;29;20200;-47
2022/11/24 01:33:32;;;;;;;15.70;8.05;;;;;;;3.49;100.00;100298.41;4981735;28;20536;-48
2022/11/24 01:35:58;;;;;;;9.68;8.05;;;;;;;3.48;100.00;100307.28;4915738;29;20180;-47
2022/11/24 01:38:25;;;;;;;13.60;7.95;;;;;;;3.48;100.00;100302.84;4983481;28;20212;-48
2022/11/24 01:41:01;;;;;;;10.52;7.80;;;;;;;3.45;100.00;100307.31;4915504;29;20829;-48
2022/11/24 01:43:27;;;;;;;13.98;8.38;;;;;;;3.43;100.00;100314.41;4915257;28;20310;-47
2022/11/24 01:45:54;;;;;;;13.95;8.77;;;;;;;3.43;100.00;100306.47;4914132;28;20199;-47
2022/11/24 01:48:29;;;;;;;13.73;8.43;;;;;;;3.41;100.00;100317.09;4917770;28;20208;-48
2022/11/24 01:51:10;;;;;;;13.40;8.05;;;;;;;3.45;100.00;100313.47;4915079;28;20188;-46
2022/11/24 01:53:40;;;;;;;15.07;8.35;;;;;;;3.41;100.00;100314.47;4916168;29;20211;-46
2022/11/24 01:56:07;;;;;;;13.55;8.60;;;;;;;3.42;100.00;100312.69;4967385;28;20274;-46
2022/11/24 01:58:35;;;;;;;13.15;8.30;;;;;;;3.39;100.00;100318.00;4917564;29;20204;-46
2022/11/24 02:01:00;;;;;;;14.00;8.68;;;;;;;3.39;100.00;100313.59;4916879;29;20254;-48
2022/11/24 02:03:32;;;;;;;14.23;8.60;;;;;;;3.42;100.00;100331.22;4914464;29;20172;-48
2022/11/24 02:06:06;;;;;;;13.35;9.05;;;;;;;3.37;100.00;100331.28;4918274;29;20200;-46
2022/11/24 02:08:55;;;;;;;13.38;9.00;;;;;;;3.35;100.00;100337.53;4921152;29;20260;-47
2022/11/24 02:11:25;;;;;;;12.15;9.13;;;;;;;3.36;100.00;100339.25;4914647;29;20610;-48
2022/11/24 02:13:53;;;;;;;18.02;9.45;;;;;;;3.33;100.00;100342.84;4915905;29;20665;-48
2022/11/24 02:16:18;;;;;;;17.25;10.07;;;;;;;3.30;100.00;100346.41;4915053;29;20191;-47
2022/11/24 02:18:44;;;;;;;19.20;9.93;;;;;;;3.31;100.00;100347.28;4920020;29;20667;-47
2022/11/24 02:21:12;;;;;;;16.33;10.52;;;;;;;3.29;100.00;100338.47;4913242;29;20180;-48
2022/11/24 02:23:53;;;;;;;16.48;10.13;;;;;;;3.28;100.00;100345.56;4922835;29;20269;-47
2022/11/24 02:26:37;;;;;;;18.42;10.43;;;;;;;3.30;100.00;100345.50;4914498;29;20182;-48
2022/11/24 02:29:03;;;;;;;17.27;10.70;;;;;;;3.27;100.00;100341.13;4918551;29;20217;-47
2022/11/24 02:31:29;;;;;;;13.70;9.32;;;;;;;3.28;100.00;100355.28;4917508;29;20563;-47
2022/11/24 02:33:55;;;;;;;16.23;11.23;;;;;;;3.25;100.00;100352.66;4917217;28;20605;-47
2022/11/24 02:36:20;;;;;;;16.48;10.60;;;;;;;3.25;100.00;100363.25;4918345;29;20204;-47
2022/11/24 02:38:46;;;;;;;15.20;11.05;;;;;;;3.23;100.00;100357.97;4912760;29;20180;-48
2022/11/24 02:41:16;;;;;;;15.35;11.35;;;;;;;3.23;100.00;100349.16;4919295;29;20554;-49
2022/11/24 02:43:55;;;;;;;17.30;10.88;;;;;;;3.27;100.00;100345.56;4915134;29;20207;-50
2022/11/24 02:46:21;;;;;;;17.10;11.20;;;;;;;3.25;100.00;100350.88;4914938;28;20188;-49
2022/11/24 02:48:46;;;;;;;19.70;11.35;;;;;;;3.22;100.00;100347.44;4915981;28;20331;-48
2022/11/24 02:51:12;;;;;;;16.35;10.85;;;;;;;3.24;100.00;100351.78;4913343;28;20187;-49
2022/11/24 02:53:38;;;;;;;15.95;11.32;;;;;;;3.23;100.00;100365.91;4920712;29;20191;-47
2022/11/24 02:56:04;;;;;;;14.38;10.85;;;;;;;3.29;100.00;100359.66;4917694;29;20194;-47
2022/11/24 02:58:29;;;;;;;20.02;11.38;;;;;;;3.27;100.00;100364.09;4920056;29;20211;-46
2022/11/24 03:00:56;;;;;;;18.13;11.32;;;;;;;3.24;100.00;100365.03;4913885;29;20226;-48
2022/11/24 03:03:22;;;;;;;16.95;11.48;;;;;;;3.27;100.00;100364.09;4984740;28;20247;-47
2022/11/24 03:05:48;;;;;;;15.52;11.50;;;;;;;3.26;100.00;100363.25;4926573;28;20204;-46
2022/11/24 03:08:13;;;;;;;17.90;11.52;;;;;;;3.27;100.00;100357.03;4919290;29;20247;-48
2022/11/24 03:10:39;;;;;;;18.35;11.63;;;;;;;3.31;100.00;100365.81;4914978;29;20199;-46
2022/11/24 03:13:04;;;;;;;16.73;11.77;;;;;;;3.29;100.00;100367.59;4920065;29;20672;-47
2022/11/24 03:15:30;;;;;;;15.38;11.13;;;;;;;3.33;100.00;100379.91;4914924;29;20913;-46
2022/11/24 03:17:56;;;;;;;19.98;12.65;;;;;;;3.34;100.00;100378.97;4915292;29;20199;-49
2022/11/24 03:20:23;;;;;;;18.85;11.95;;;;;;;3.39;100.00;100377.16;4917964;29;20725;-48
2022/11/24 03:22:48;;;;;;;17.92;11.27;;;;;;;3.38;100.00;100385.13;4915605;29;20203;-47
2022/11/24 03:25:14;;;;;;;16.95;11.20;;;;;;;3.41;100.00;100393.00;4980147;28;20822;-47
2022/11/24 03:27:39;;;;;;;17.45;11.70;;;;;;;3.43;100.00;100389.44;4916400;29;20196;-48
2022/11/24 03:30:06;;;;;;;16.70;12.40;;;;;;;3.42;100.00;100387.69;4914354;28;20219;-47
2022/11/24 03:32:31;;;;;;;21.85;11.70;;;;;;;3.43;100.00;100392.09;4921399;29;20209;-43
2022/11/24 03:34:57;;;;;;;18.63;11.80;;;;;;;3.42;100.00;100394.75;4926659;29;20205;-41
2022/11/24 03:37:22;;;;;;;20.42;12.63;;;;;;;3.45;100.00;100394.69;4916434;28;20910;-45
2022/11/24 03:39:48;;;;;;;19.38;12.95;;;;;;;3.43;100.00;100396.50;4917141;29;20287;-42
2022/11/24 03:42:14;;;;;;;19.40;13.05;;;;;;;3.43;100.00;100401.78;4918154;29;20660;-42
2022/11/24 03:44:39;;;;;;;19.85;12.23;;;;;;;3.45;100.00;100407.94;4921288;29;20294;-42
2022/11/24 03:47:05;;;;;;;17.00;12.38;;;;;;;3.47;100.00;100412.31;4917025;29;20207;-43
2022/11/24 03:49:30;;;;;;;18.50;11.75;;;;;;;3.47;100.00;100414.97;4919670;28;20222;-41
2022/11/24 03:51:56;;;;;;;24.33;13.45;;;;;;;3.48;100.00;100410.56;4917128;29;20584;-43
2022/11/24 03:54:22;;;;;;;20.13;12.70;;;;;;;3.49;100.00;100407.00;4918325;29;20187;-42
2022/11/24 03:56:48;;;;;;;16.75;12.02;;;;;;;3.58;100.00;100409.50;4993436;28;20206;-40
2022/11/24 03:59:13;;;;;;;16.67;11.77;;;;;;;3.57;100.00;100407.75;4919307;29;20259;-44
2022/11/24 04:01:39;;;;;;;19.90;12.68;;;;;;;3.56;100.00;100413.94;4922480;29;20229;-42
2022/11/24 04:04:04;;;;;;;22.33;12.75;;;;;;;3.56;100.00;100427.19;4919192;29;20585;-41
2022/11/24 04:06:30;;;;;;;19.60;13.32;;;;;;;3.59;100.00;100416.56;4916305;29;20206;-44
2022/11/24 04:08:56;;;;;;;21.77;12.45;;;;;;;3.55;100.00;100427.22;4921154;29;20199;-44
2022/11/24 04:14:06;;;;;;;20.15;12.98;;;;;;;3.60;100.00;100438.63;4984732;28;20210;-46
2022/11/24 04:16:31;;;;;;;22.40;14.38;;;;;;;3.60;100.00;100436.84;5003184;28;20211;-44
2022/11/24 04:18:57;;;;;;;22.13;13.82;;;;;;;3.60;100.00;100444.78;4983792;28;20211;-44
2022/11/24 04:21:22;;;;;;;22.20;12.93;;;;;;;3.64;100.00;100441.19;4919665;28;20197;-43
2022/11/24 04:23:48;;;;;;;22.35;14.13;;;;;;;3.65;100.00;100445.59;4919000;28;20645;-42
2022/11/24 04:26:13;;;;;;;23.25;13.27;;;;;;;3.63;100.00;100443.84;4920308;29;20191;-42
2022/11/24 04:28:39;;;;;;;19.55;13.80;;;;;;;3.62;100.00;100442.97;4918580;29;20688;-42
2022/11/24 04:31:05;;;;;;;19.52;12.73;;;;;;;3.62;100.00;100442.13;4918447;29;20629;-46
2022/11/24 04:33:31;;;;;;;18.85;12.90;;;;;;;3.64;100.00;100446.47;4923885;29;20659;-45
2022/11/24 04:35:57;;;;;;;20.17;13.25;;;;;;;3.65;100.00;100448.25;4919010;28;20176;-43
2022/11/24 04:38:22;;;;;;;18.85;12.90;;;;;;;3.66;100.00;100452.63;4924519;29;20195;-42
2022/11/24 04:40:48;;;;;;;18.30;12.32;;;;;;;3.67;100.00;100457.06;4918934;29;20215;-43
2022/11/24 04:43:16;;;;;;;19.38;12.15;;;;;;;3.71;100.00;100466.69;4916289;29;20263;-40
2022/11/24 04:45:41;;;;;;;19.55;13.27;;;;;;;3.74;100.00;100472.81;4916657;29;20273;-41
2022/11/24 04:48:07;;;;;;;16.23;13.60;;;;;;;3.74;100.00;100481.69;4920300;29;20807;-43
2022/11/24 04:50:32;;;;;;;20.52;12.38;;;;;;;3.75;100.00;100479.91;4919878;29;20231;-43
2022/11/24 04:52:58;;;;;;;17.92;13.05;;;;;;;3.76;100.00;100469.28;4918108;29;20202;-43
2022/11/24 04:55:23;;;;;;;18.73;12.15;;;;;;;3.77;100.00;100480.75;4918856;29;20195;-43
2022/11/24 04:57:49;;;;;;;14.35;11.48;;;;;;;3.84;100.00;100479.75;4916769;29;20208;-41
2022/11/24 05:00:15;;;;;;;19.05;12.77;;;;;;;3.80;100.00;100484.19;4917828;29;20223;-41
2022/11/24 05:02:40;;;;;;;18.08;12.23;;;;;;;3.81;100.00;100485.97;4919802;29;20211;-41
2022/11/24 05:05:06;;;;;;;15.73;11.85;;;;;;;3.87;100.00;100485.88;4919133;28;20176;-44
2022/11/24 05:07:32;;;;;;;22.08;12.45;;;;;;;3.86;100.00;100501.78;4920817;29;20279;-42
2022/11/24 05:12:42;;;;;;;18.48;11.68;;;;;;;3.92;100.00;100499.03;4917475;29;20645;-42
2022/11/24 05:15:08;;;;;;;18.67;12.60;;;;;;;3.93;100.00;100500.78;4923591;29;20247;-42
2022/11/24 05:17:36;;;;;;;22.05;13.65;;;;;;;3.90;100.00;100504.38;4917846;29;20598;-43
2022/11/24 05:20:02;;;;;;;20.42;12.60;;;;;;;3.92;100.00;100507.88;4921290;29;20192;-43
2022/11/24 05:22:28;;;;;;;26.52;13.40;;;;;;;3.95;100.00;100511.38;4921067;29;20556;-44
2022/11/24 05:24:54;;;;;;;22.90;12.88;;;;;;;3.94;100.00;100510.50;4918542;29;20270;-43
2022/11/24 05:27:19;;;;;;;17.00;12.77;;;;;;;3.94;100.00;100507.84;4919090;29;20692;-44
2022/11/24 05:29:45;;;;;;;18.70;12.25;;;;;;;3.97;100.00;100505.13;4919598;29;20665;-43
2022/11/24 05:32:10;;;;;;;21.55;13.02;;;;;;;3.97;100.00;100515.75;4918887;28;20413;-43
2022/11/24 05:34:36;;;;;;;18.45;12.95;;;;;;;3.97;100.00;100512.22;4915920;28;20180;-44
2022/11/24 05:37:02;;;;;;;21.90;13.15;;;;;;;4.00;100.00;100514.81;4987847;28;20212;-41
2022/11/24 05:39:33;;;;;;;19.10;13.75;;;;;;;4.00;100.00;100522.75;4918816;29;20192;-41
2022/11/24 05:42:39;;;;;;;22.13;14.15;;;;;;;4.00;100.00;100521.00;4917456;29;20508;-42
2022/11/24 05:44:46;;;;;;;22.40;13.93;;;;;;;4.03;100.00;100526.25;4916760;28;20267;-42
2022/11/24 05:47:12;;;;;;;27.40;13.73;;;;;;;4.03;100.00;100528.03;4919357;29;20424;-40
2022/11/24 05:49:37;;;;;;;22.13;13.80;;;;;;;4.03;100.00;100523.59;4917810;29;20644;-43
2022/11/24 05:52:03;;;;;;;21.25;13.82;;;;;;;4.02;100.00;100526.25;4985469;28;20294;-43
2022/11/24 05:54:28;;;;;;;18.65;13.77;;;;;;;4.03;100.00;100518.28;4920834;28;20188;-42
2022/11/24 05:56:54;;;;;;;21.92;13.23;;;;;;;4.07;100.00;100516.47;4918058;29;20219;-44
2022/11/24 05:59:20;;;;;;;20.65;13.27;;;;;;;4.08;100.00;100518.22;4914538;29;20561;-44
2022/11/24 06:01:46;;;;;;;22.88;13.27;;;;;;;4.06;100.00;100515.59;4918852;29;20245;-43
2022/11/24 06:04:11;;;;;;;25.50;13.20;;;;;;;4.06;100.00;100522.66;4921649;29;20179;-44
2022/11/24 06:06:37;;;;;;;19.65;13.25;;;;;;;4.05;100.00;100518.28;4915939;29;20566;-42
2022/11/24 06:09:03;;;;;;;20.35;13.05;;;;;;;4.07;100.00;100521.78;4915936;29;20211;-43
2022/11/24 06:11:29;;;;;;;22.63;13.15;;;;;;;4.08;100.00;100531.47;4985015;28;20238;-44
2022/11/24 06:13:55;;;;;;;22.05;13.13;;;;;;;4.07;100.00;100532.38;4916595;29;20180;-44
2022/11/24 06:16:20;;;;;;;20.08;14.02;;;;;;;4.08;100.00;100528.81;4913664;29;20275;-44
2022/11/24 06:18:46;;;;;;;23.17;13.75;;;;;;;4.10;100.00;100540.28;4988581;28;20187;-45
2022/11/24 06:21:11;;;;;;;22.23;14.23;;;;;;;4.11;100.00;100536.72;4919407;29;20843;-44
2022/11/24 06:23:37;;;;;;;30.70;14.93;;;;;;;4.10;100.00;100540.28;4918127;28;20188;-42
2022/11/24 06:26:03;;;;;;;25.98;14.27;;;;;;;4.12;100.00;100555.25;4918691;29;20191;-43
2022/11/24 06:28:29;;;;;;;24.13;14.95;;;;;;;4.12;100.00;100554.38;4920519;28;20231;-44
2022/11/24 06:30:58;;;;;;;19.98;13.63;;;;;;;4.13;100.00;100564.97;4916097;29;20279;-42
2022/11/24 06:33:24;;;;;;;18.38;14.50;;;;;;;4.19;100.00;100573.72;4917610;29;20203;-42
2022/11/24 06:35:49;;;;;;;22.17;14.13;;;;;;;4.17;100.00;100578.16;4917153;29;20180;-44
2022/11/24 06:38:15;;;;;;;24.33;15.00;;;;;;;4.19;100.00;100573.72;4916311;29;20250;-42
2022/11/24 06:40:41;;;;;;;30.88;15.00;;;;;;;4.21;100.00;100574.56;4915912;29;20184;-43
2022/11/24 06:43:07;;;;;;;25.92;15.23;;;;;;;4.18;100.00;100572.84;4913487;29;20257;-42
2022/11/24 06:45:32;;;;;;;25.20;15.18;;;;;;;4.25;100.00;100586.88;4914594;29;20183;-42
2022/11/24 06:47:58;;;;;;;27.95;16.00;;;;;;;4.25;100.00;100582.44;4916313;29;20254;-41
2022/11/24 06:50:24;;;;;;;30.83;16.38;;;;;;;4.25;100.00;100582.44;4986206;28;20249;-43
2022/11/24 06:52:49;;;;;;;30.42;16.35;;;;;;;4.26;100.00;100589.53;4919283;29;20186;-43
2022/11/24 06:55:14;;;;;;;28.23;16.30;;;;;;;4.26;100.00;100599.22;4915081;29;20192;-42
2022/11/24 06:57:40;;;;;;;34.45;16.08;;;;;;;4.27;100.00;100595.69;4917262;29;20329;-44
2022/11/24 07:00:07;;;;;;;26.23;15.52;;;;;;;4.26;100.00;100600.13;4922104;29;20526;-43
2022/11/24 07:02:33;;;;;;;26.42;16.63;;;;;;;4.27;100.00;100591.25;4919623;28;20246;-43
2022/11/24 07:04:58;;;;;;;33.20;17.45;;;;;;;4.26;100.00;100605.44;4917975;28;20192;-45
2022/11/24 07:07:24;;;;;;;31.10;17.77;;;;;;;4.26;100.00;100594.81;4959609;28;20218;-44
2022/11/24 07:09:49;;;;;;;32.13;17.73;;;;;;;4.29;100.00;100604.50;4919314;28;20267;-44
2022/11/24 07:12:15;;;;;;;33.38;18.60;;;;;;;4.30;100.00;100609.75;4933255;28;20184;-43
2022/11/24 07:14:40;;;;;;;34.90;19.17;;;;;;;4.32;100.00;100601.78;4924620;28;20184;-43
2022/11/24 07:17:06;;;;;;;31.95;17.75;;;;;;;4.34;100.00;100606.16;4967652;28;20730;-42
2022/11/24 07:19:32;;;;;;;32.53;20.83;;;;;;;4.36;100.00;100616.75;4969889;23;20980;-46
2022/11/24 07:21:57;;;;;;;39.63;20.35;;;;;;;4.36;100.00;100616.75;4900695;28;20205;-48
2022/11/24 07:24:23;;;;;;;34.40;20.35;;;;;;;4.35;100.00;100625.59;4893534;28;20320;-48
2022/11/24 07:26:48;;;;;;;32.95;17.67;;;;;;;4.34;100.00;100630.03;4878022;29;20815;-48
2022/11/24 07:29:14;;;;;;;33.45;18.95;;;;;;;4.40;100.00;100631.72;4856637;29;20693;-48
2022/11/24 07:31:39;;;;;;;37.65;19.90;;;;;;;4.39;100.00;100629.97;4862315;29;20648;-47
2022/11/24 07:34:05;;;;;;;36.65;19.10;;;;;;;4.38;100.00;100633.53;4875278;29;20275;-42
2022/11/24 07:36:30;;;;;;;32.47;18.95;;;;;;;4.39;100.00;100632.59;4870848;29;20186;-48
2022/11/24 07:38:56;;;;;;;39.03;19.38;;;;;;;4.43;100.00;100633.44;4858018;29;20197;-47
2022/11/24 07:41:21;;;;;;;34.10;19.30;;;;;;;4.42;100.00;100635.22;4857771;29;20310;-43
2022/11/24 07:43:48;;;;;;;35.03;18.70;;;;;;;4.43;100.00;100644.94;4892564;29;20177;-44
2022/11/24 07:46:15;;;;;;;40.95;19.35;;;;;;;4.45;100.00;100650.22;4895154;29;20645;-46
2022/11/24 07:48:41;;;;;;;35.85;18.95;;;;;;;4.44;100.00;100652.00;4884854;29;20639;-47
2022/11/24 07:51:07;;;;;;;38.13;18.65;;;;;;;4.46;100.00;100659.91;4876425;29;20216;-46
2022/11/24 07:53:33;;;;;;;32.05;19.45;;;;;;;4.45;100.00;100661.69;4874896;29;20185;-44
2022/11/24 07:56:01;;;;;;;68.53;21.52;;;;;;;4.50;100.00;100674.88;4875938;29;20193;-49
2022/11/24 07:58:28;;;;;;;39.13;20.02;;;;;;;4.49;100.00;100678.44;4875099;29;20423;-45
2022/11/24 08:00:54;;;;;;;33.10;20.27;;;;;;;4.48;100.00;100672.28;4876289;29;20233;-45
2022/11/24 08:03:20;;;;;;;32.58;18.50;;;;;;;4.51;100.00;100680.19;4876611;29;20530;-47
2022/11/24 08:05:57;;;;;;;33.70;18.38;;;;;;;4.51;100.00;100689.91;4874137;29;20710;-44
2022/11/24 08:08:24;;;;;;;27.98;18.92;;;;;;;4.53;100.00;100689.00;4858063;29;20709;-48
2022/11/24 08:10:49;;;;;;;34.78;17.75;;;;;;;4.53;100.00;100693.44;4858745;29;20175;-46
2022/11/24 08:13:15;;;;;;;28.58;18.73;;;;;;;4.56;100.00;100698.66;4876244;29;20249;-45
2022/11/24 08:15:40;;;;;;;35.50;21.10;;;;;;;4.56;100.00;100689.84;4869141;29;20277;-43
2022/11/24 08:18:06;;;;;;;31.20;18.85;;;;;;;4.57;100.00;100694.22;4861267;29;20573;-51
2022/11/24 08:20:31;;;;;;;41.17;21.02;;;;;;;4.58;100.00;100709.28;4864420;29;20197;-43
2022/11/24 08:22:58;;;;;;;37.35;19.65;;;;;;;4.60;100.00;100702.16;4859749;29;20198;-45
2022/11/24 08:25:31;;;;;;;33.15;18.75;;;;;;;4.58;100.00;100709.28;4866711;29;20189;-43
2022/11/24 08:27:58;;;;;;;29.65;18.20;;;;;;;4.60;100.00;100716.31;4865604;29;20276;-44
2022/11/24 08:30:24;;;;;;;28.60;18.17;;;;;;;4.61;100.00;100714.53;4866185;29;20189;-45
2022/11/24 08:32:50;;;;;;;31.83;18.15;;;;;;;4.64;100.00;100698.56;4857438;29;20197;-43
2022/11/24 08:35:15;;;;;;;34.08;18.70;;;;;;;4.64;100.00;100709.19;4864578;29;20257;-43
2022/11/24 08:37:41;;;;;;;28.98;17.50;;;;;;;4.64;100.00;100719.78;4873870;29;20277;-47
2022/11/24 08:40:07;;;;;;;33.20;18.38;;;;;;;4.66;100.00;100707.38;4867389;29;20189;-42
2022/11/24 08:42:32;;;;;;;32.85;19.52;;;;;;;4.68;100.00;100711.75;4865609;29;20182;-47
2022/11/24 08:44:58;;;;;;;33.45;18.80;;;;;;;4.69;100.00;100709.97;4862411;29;20265;-43
2022/11/24 08:47:23;;;;;;;33.50;17.85;;;;;;;4.72;100.00;100713.47;4862037;29;20217;-44
2022/11/24 08:49:49;;;;;;;34.13;19.35;;;;;;;4.73;100.00;100712.56;4862143;29;21006;-44
2022/11/24 08:52:15;;;;;;;34.67;20.20;;;;;;;4.75;100.00;100717.84;4861881;29;20197;-43
2022/11/24 08:54:43;;;;;;;32.95;17.40;;;;;;;4.78;100.00;100715.13;4869937;29;20181;-44
2022/11/24 08:57:09;;;;;;;30.05;18.20;;;;;;;4.78;100.00;100719.56;4863903;29;20308;-44
2022/11/24 08:59:35;;;;;;;32.00;18.58;;;;;;;4.79;100.00;100724.84;4872834;29;20321;-42
2022/11/24 09:02:01;;;;;;;29.17;16.60;;;;;;;4.79;100.00;100730.16;4863858;29;20288;-41
2022/11/24 09:04:26;;;;;;;31.95;17.85;;;;;;;4.81;100.00;100735.44;4860864;29;21130;-45
2022/11/24 09:06:52;;;;;;;27.38;16.08;;;;;;;4.85;100.00;100734.47;4868703;29;20284;-47
2022/11/24 09:09:18;;;;;;;29.13;16.48;;;;;;;4.86;100.00;100734.47;4869029;29;20197;-43
2022/11/24 09:11:43;;;;;;;30.27;17.55;;;;;;;4.89;100.00;100746.81;4867540;29;20257;-43
2022/11/24 09:14:09;;;;;;;26.27;15.25;;;;;;;4.93;100.00;100737.91;4859754;29;20603;-43
2022/11/24 09:16:35;;;;;;;37.83;23.45;;;;;;;4.92;100.00;100749.44;4860073;29;20213;-46
2022/11/24 09:19:03;;;;;;;30.70;17.20;;;;;;;4.97;100.00;100746.69;4866382;29;20218;-47
2022/11/24 09:21:30;;;;;;;24.98;15.48;;;;;;;4.97;100.00;100754.66;4865834;29;20186;-46
2022/11/24 09:23:56;;;;;;;27.17;16.13;;;;;;;4.97;100.00;100747.56;4873639;29;20209;-43
2022/11/24 09:26:23;;;;;;;28.45;17.02;;;;;;;4.97;100.00;100755.53;4866327;29;20277;-44
2022/11/24 09:28:49;;;;;;;28.58;16.45;;;;;;;5.01;100.00;100767.84;4865249;29;20281;-46
2022/11/24 09:31:16;;;;;;;32.78;14.63;;;;;;;5.06;100.00;100757.16;4858359;29;20265;-47
2022/11/24 09:33:43;;;;;;;37.53;16.35;;;;;;;5.08;100.00;100761.53;4866200;29;20197;-44
2022/11/24 09:36:08;;;;;;;29.25;16.30;;;;;;;5.14;100.00;100757.91;4863345;29;20193;-44
2022/11/24 09:38:34;;;;;;;26.90;16.30;;;;;;;5.16;100.00;100758.78;4860005;29;20357;-44
2022/11/24 09:41:34;;;;;;;29.42;17.05;;;;;;;5.22;100.00;100758.63;4864833;29;20182;-44
2022/11/24 09:43:59;;;;;;;28.45;15.93;;;;;;;5.25;100.00;100766.56;4866828;29;20228;-46
2022/11/24 09:46:43;;;;;;;22.63;15.13;;;;;;;5.30;100.00;100775.31;4858617;29;20221;-43
2022/11/24 09:49:18;;;;;;;22.55;14.48;;;;;;;5.39;100.00;100770.75;4861206;28;20233;-44
2022/11/24 09:51:48;;;;;;;27.45;14.77;;;;;;;5.41;100.00;100779.59;4862996;29;20177;-44
2022/11/24 09:54:23;;;;;;;29.63;15.13;;;;;;;5.41;100.00;100777.78;4869043;29;20198;-44
2022/11/24 09:56:51;;;;;;;27.10;15.23;;;;;;;5.42;100.00;100771.56;4867438;29;20745;-44
2022/11/24 09:59:21;;;;;;;24.85;14.90;;;;;;;5.43;100.00;100772.47;4860872;29;20665;-48
2022/11/24 10:01:49;;;;;;;27.13;14.80;;;;;;;5.47;100.00;100779.47;4866993;29;20207;-44
2022/11/24 10:04:23;;;;;;;26.83;14.00;;;;;;;5.52;100.00;100775.81;4863418;29;20623;-47
2022/11/24 10:06:54;;;;;;;26.48;15.15;;;;;;;5.57;100.00;100781.03;4866374;29;20327;-47
2022/11/24 10:09:41;;;;;;;32.63;17.25;;;;;;;5.60;100.00;100769.47;4861304;29;20269;-42
2022/11/24 10:12:23;;;;;;;30.85;16.25;;;;;;;5.61;100.00;100777.44;4873241;29;20185;-45
2022/11/24 10:15:11;;;;;;;28.02;14.45;;;;;;;5.63;100.00;100778.28;4866546;29;20658;-45
2022/11/24 10:17:55;;;;;;;28.25;14.55;;;;;;;5.66;100.00;100790.63;4863467;29;20198;-44
2022/11/24 10:20:39;;;;;;;28.02;14.95;;;;;;;5.66;100.00;100783.53;4857152;29;20197;-46
2022/11/24 10:23:23;;;;;;;24.33;13.88;;;;;;;5.71;100.00;100789.66;4864209;29;20216;-44
2022/11/24 10:25:54;;;;;;;26.17;14.98;;;;;;;5.74;100.00;100805.53;4868807;29;20193;-43
2022/11/24 10:28:20;;;;;;;27.73;14.75;;;;;;;5.74;100.00;100800.22;4859885;29;20600;-42
2022/11/24 10:30:45;;;;;;;28.88;14.85;;;;;;;5.77;100.00;100794.84;4861818;29;20177;-44
2022/11/24 10:33:20;;;;;;;27.98;15.15;;;;;;;5.81;100.00;100800.09;4855573;29;20208;-49
2022/11/24 10:35:51;;;;;;;30.08;13.80;;;;;;;5.86;100.00;100793.81;4864759;29;20177;-43
2022/11/24 10:38:20;;;;;;;25.30;13.80;;;;;;;5.99;100.00;100794.44;4861087;29;20277;-44
2022/11/24 10:40:52;;;;;;;26.73;14.13;;;;;;;6.00;100.00;100792.69;4862485;29;20197;-49
2022/11/24 10:43:18;;;;;;;24.33;13.73;;;;;;;5.98;100.00;100790.91;4868160;29;20658;-44
2022/11/24 10:45:44;;;;;;;23.98;14.70;;;;;;;6.02;100.00;100788.22;4862649;29;20236;-46
2022/11/24 10:48:24;;;;;;;26.08;14.25;;;;;;;6.01;100.00;100789.97;4863276;29;20213;-46
2022/11/24 10:50:55;;;;;;;24.90;13.90;;;;;;;6.00;100.00;100787.38;4859441;29;20240;-43
2022/11/24 10:53:28;;;;;;;25.08;13.93;;;;;;;6.02;100.00;100789.09;4861930;29;20185;-45
2022/11/24 10:55:54;;;;;;;28.65;15.57;;;;;;;6.04;100.00;100789.94;4858733;29;20257;-45
2022/11/24 10:58:25;;;;;;;24.13;13.82;;;;;;;6.09;100.00;100793.34;4870188;29;20213;-43
2022/11/24 11:00:50;;;;;;;31.00;14.68;;;;;;;6.11;100.00;100794.22;4864325;29;20280;-45
2022/11/24 11:03:25;;;;;;;28.05;15.10;;;;;;;6.14;100.00;100782.63;4860433;29;20190;-43
2022/11/24 11:05:55;;;;;;;31.02;14.73;;;;;;;6.17;100.00;100786.09;4858864;29;20197;-47
2022/11/24 11:08:22;;;;;;;29.55;16.17;;;;;;;6.18;100.00;100782.53;4860100;29;20698;-46
2022/11/24 11:10:50;;;;;;;30.92;14.57;;;;;;;6.23;100.00;100793.09;4862628;29;20630;-43
2022/11/24 11:13:22;;;;;;;24.55;14.57;;;;;;;6.24;100.00;100792.16;4861697;29;20182;-43
2022/11/24 11:15:48;;;;;;;39.80;18.00;;;;;;;6.27;100.00;100789.44;4855791;29;20174;-43
2022/11/24 11:18:16;;;;;;;30.23;15.40;;;;;;;6.32;100.00;100784.00;4863311;29;20213;-45